createdAt,value
2019-01-10T00:01:32.241Z,0.70
2019-01-10T00:04:13.464Z,0.80
2019-01-10T00:06:54.509Z,0.70
2019-01-10T00:09:35.065Z,0.70
2019-01-10T00:12:16.046Z,1.33
2019-01-10T00:14:57.328Z,0.87
2019-01-10T00:17:38.481Z,0.70
2019-01-10T00:20:19.271Z,0.70
2019-01-10T00:22:59.778Z,0.70
2019-01-10T00:25:40.374Z,0.70
2019-01-10T00:28:20.784Z,0.80
2019-01-10T00:31:02.238Z,0.60
2019-01-10T00:33:42.774Z,0.60
2019-01-10T00:36:23.801Z,0.60
2019-01-10T00:39:04.619Z,0.60
2019-01-10T00:41:45.812Z,0.80
2019-01-10T00:44:26.190Z,1.07
2019-01-10T00:47:07.554Z,0.70
2019-01-10T00:52:27.177Z,0.73
2019-01-10T00:55:07.848Z,0.70
2019-01-10T00:57:48.825Z,0.63
2019-01-10T01:00:29.826Z,0.70
2019-01-10T01:03:10.302Z,0.60
2019-01-10T01:05:51.374Z,0.70
2019-01-10T01:08:32.603Z,0.60
2019-01-10T01:11:13.896Z,0.70
2019-01-10T01:13:54.951Z,1.03
2019-01-10T01:16:35.612Z,0.70
2019-01-10T01:19:16.275Z,0.80
2019-01-10T01:21:56.987Z,0.70
2019-01-10T01:24:37.701Z,0.50
2019-01-10T01:27:18.943Z,0.80
2019-01-10T01:29:59.783Z,0.60
2019-01-10T01:32:41.068Z,0.67
2019-01-10T01:35:21.826Z,0.60
2019-01-10T01:38:02.348Z,0.60
2019-01-10T01:40:43.592Z,0.60
2019-01-10T01:43:24.294Z,0.80
2019-01-10T01:46:07.660Z,0.70
2019-01-10T01:48:48.266Z,0.90
2019-01-10T01:51:29.135Z,0.90
2019-01-10T01:54:09.815Z,0.73
2019-01-10T01:56:50.346Z,0.70
2019-01-10T01:59:31.018Z,0.70
2019-01-10T02:02:11.930Z,0.67
2019-01-10T02:04:52.647Z,0.77
2019-01-10T02:07:33.580Z,0.90
2019-01-10T02:10:14.266Z,0.70
2019-01-10T02:12:55.117Z,0.60
2019-01-10T02:15:35.802Z,0.70
2019-01-10T02:18:16.705Z,0.70
2019-01-10T02:20:57.216Z,0.80
2019-01-10T02:26:16.799Z,0.60
2019-01-10T02:28:57.382Z,0.80
2019-01-10T02:31:38.533Z,0.80
2019-01-10T02:34:19.299Z,0.83
2019-01-10T02:37:00.580Z,0.73
2019-01-10T02:39:41.432Z,0.87
2019-01-10T02:42:22.299Z,0.70
2019-01-10T02:45:06.177Z,0.80
2019-01-10T02:47:47.454Z,0.80
2019-01-10T02:50:28.433Z,0.70
2019-01-10T02:53:09.592Z,1.00
2019-01-10T02:55:53.376Z,0.80
2019-01-10T02:58:34.699Z,0.70
2019-01-10T03:01:16.005Z,0.90
2019-01-10T03:06:35.838Z,0.73
2019-01-10T03:09:17.833Z,0.57
2019-01-10T03:11:58.672Z,0.50
2019-01-10T03:14:39.597Z,0.80
2019-01-10T03:17:20.336Z,0.60
2019-01-10T03:20:00.870Z,0.70
2019-01-10T03:25:20.247Z,0.63
2019-01-10T03:28:00.855Z,0.70
2019-01-10T03:30:41.380Z,0.60
2019-01-10T03:33:22.023Z,0.90
2019-01-10T03:36:02.936Z,0.80
2019-01-10T03:38:43.939Z,1.07
2019-01-10T03:41:24.817Z,0.80
2019-01-10T03:44:05.683Z,0.50
2019-01-10T03:46:46.474Z,0.70
2019-01-10T03:49:26.304Z,0.70
2019-01-10T03:52:07.403Z,0.70
2019-01-10T03:54:48.588Z,0.70
2019-01-10T03:57:29.499Z,0.60
2019-01-10T04:00:10.249Z,0.70
2019-01-10T04:02:50.821Z,0.60
2019-01-10T04:05:31.673Z,0.57
2019-01-10T04:10:57.246Z,0.70
2019-01-10T04:13:38.588Z,0.50
2019-01-10T04:16:07.859Z,0.80
2019-01-10T04:18:36.992Z,0.80
2019-01-10T04:21:16.702Z,0.60
2019-01-10T04:23:37.021Z,0.73
2019-01-10T04:26:06.535Z,0.60
2019-01-10T04:28:41.624Z,0.70
2019-01-10T04:31:10.980Z,0.63
2019-01-10T04:33:40.145Z,0.80
2019-01-10T04:36:09.304Z,0.80
2019-01-10T04:38:38.500Z,0.83
2019-01-10T04:41:07.754Z,1.00
2019-01-10T04:43:36.891Z,0.70
2019-01-10T04:46:06.161Z,0.90
2019-01-10T04:48:35.259Z,1.10
2019-01-10T04:51:04.425Z,0.77
2019-01-10T04:53:33.589Z,0.80
2019-01-10T04:56:02.829Z,0.80
2019-01-10T04:58:32.030Z,0.90
2019-01-10T05:01:01.161Z,0.63
2019-01-10T05:03:30.415Z,1.00
2019-01-10T05:05:59.616Z,0.97
2019-01-10T05:08:28.787Z,0.70
2019-01-10T05:10:57.910Z,0.80
2019-01-10T05:13:27.057Z,0.80
2019-01-10T05:15:57.611Z,0.77
2019-01-10T05:18:27.881Z,0.80
2019-01-10T05:21:03.906Z,0.90
2019-01-10T05:23:33.194Z,0.80
2019-01-10T05:26:02.355Z,0.73
2019-01-10T05:28:31.569Z,0.97
2019-01-10T05:31:00.682Z,0.70
2019-01-10T05:33:37.804Z,0.87
2019-01-10T05:36:07.128Z,0.80
2019-01-10T05:38:44.399Z,0.60
2019-01-10T05:41:21.721Z,0.80
2019-01-10T05:43:50.936Z,0.70
2019-01-10T05:46:20.146Z,0.80
2019-01-10T05:49:05.425Z,0.60
2019-01-10T05:51:36.548Z,0.70
2019-01-10T05:54:08.920Z,0.70
2019-01-10T05:56:38.121Z,0.70
2019-01-10T05:59:18.645Z,0.60
2019-01-10T06:01:53.860Z,0.70
2019-01-10T06:04:29.082Z,0.80
2019-01-10T06:06:58.440Z,0.70
2019-01-10T06:09:29.590Z,0.80
2019-01-10T06:11:58.894Z,0.70
2019-01-10T06:14:35.540Z,0.70
2019-01-10T06:16:59.002Z,0.73
2019-01-10T06:19:34.172Z,0.70
2019-01-10T06:22:03.402Z,0.70
2019-01-10T06:24:35.707Z,0.70
2019-01-10T06:27:06.003Z,0.70
2019-01-10T06:29:38.416Z,0.83
2019-01-10T06:32:09.640Z,0.80
2019-01-10T06:34:40.865Z,0.70
2019-01-10T06:37:29.765Z,0.83
2019-01-10T06:40:17.235Z,0.83
2019-01-10T06:42:57.602Z,0.73
2019-01-10T06:45:36.027Z,0.80
2019-01-10T06:48:06.359Z,0.97
2019-01-10T06:50:35.511Z,0.83
2019-01-10T06:53:04.736Z,0.83
2019-01-10T06:55:35.840Z,0.80
2019-01-10T06:58:05.154Z,0.80
2019-01-10T07:00:34.363Z,1.00
2019-01-10T07:03:09.620Z,1.13
2019-01-10T07:05:47.662Z,0.90
2019-01-10T07:08:28.978Z,1.10
2019-01-10T07:11:10.383Z,1.23
2019-01-10T07:13:40.583Z,1.50
2019-01-10T07:16:09.745Z,1.67
2019-01-10T07:18:39.920Z,1.53
2019-01-10T07:21:09.183Z,1.70
2019-01-10T07:23:50.489Z,1.50
2019-01-10T07:26:19.693Z,1.30
2019-01-10T07:28:48.802Z,1.40
2019-01-10T07:31:43.007Z,1.20
2019-01-10T07:34:13.177Z,1.70
2019-01-10T07:36:42.415Z,1.93
2019-01-10T07:39:20.675Z,1.47
2019-01-10T07:41:51.847Z,1.40
2019-01-10T07:44:25.084Z,1.03
2019-01-10T07:46:54.321Z,1.10
2019-01-10T07:49:28.644Z,1.00
2019-01-10T07:51:58.008Z,1.03
2019-01-10T07:54:27.174Z,0.90
2019-01-10T07:56:56.349Z,1.40
2019-01-10T07:59:25.548Z,1.00
2019-01-10T08:01:55.169Z,1.03
2019-01-10T08:04:32.692Z,0.70
2019-01-10T08:07:02.844Z,0.80
2019-01-10T08:09:32.110Z,0.73
2019-01-10T08:12:01.319Z,0.80
2019-01-10T08:14:30.375Z,0.70
2019-01-10T08:16:59.510Z,0.80
2019-01-10T08:19:28.620Z,0.80
2019-01-10T08:21:57.737Z,0.70
2019-01-10T08:24:26.873Z,0.90
2019-01-10T08:26:55.947Z,1.00
2019-01-10T08:29:25.068Z,1.00
2019-01-10T08:31:54.238Z,0.70
2019-01-10T08:34:23.427Z,0.90
2019-01-10T08:36:52.659Z,0.90
2019-01-10T08:39:21.737Z,1.20
2019-01-10T08:41:50.835Z,0.90
2019-01-10T08:44:20.001Z,1.10
2019-01-10T08:46:49.120Z,1.10
2019-01-10T08:49:18.254Z,0.80
2019-01-10T08:51:47.559Z,0.90
2019-01-10T08:54:16.736Z,0.80
2019-01-10T08:56:45.879Z,0.90
2019-01-10T08:59:15.134Z,1.20
2019-01-10T09:01:44.257Z,1.70
2019-01-10T09:04:13.419Z,1.10
2019-01-10T09:06:42.511Z,1.00
2019-01-10T09:09:11.631Z,0.97
2019-01-10T09:11:40.813Z,0.80
2019-01-10T09:14:09.875Z,1.00
2019-01-10T09:16:58.057Z,1.00
2019-01-10T09:19:38.725Z,1.00
2019-01-10T09:22:19.908Z,0.90
2019-01-10T09:24:59.760Z,1.20
2019-01-10T09:27:40.152Z,0.80
2019-01-10T09:30:21.079Z,1.00
2019-01-10T09:33:01.758Z,0.90
2019-01-10T09:35:42.842Z,0.80
2019-01-10T09:38:23.508Z,0.90
2019-01-10T09:41:04.260Z,0.70
2019-01-10T09:43:45.023Z,0.80
2019-01-10T09:46:25.619Z,0.80
2019-01-10T09:49:06.312Z,0.70
2019-01-10T09:51:46.824Z,0.80
2019-01-10T09:54:27.809Z,0.60
2019-01-10T09:57:08.765Z,0.80
2019-01-10T09:59:50.329Z,0.90
2019-01-10T10:02:31.559Z,0.70
2019-01-10T10:05:12.467Z,0.70
2019-01-10T10:07:53.046Z,0.70
2019-01-10T10:10:34.396Z,0.77
2019-01-10T10:13:15.383Z,0.70
2019-01-10T10:15:56.130Z,0.90
2019-01-10T10:18:37.148Z,0.80
2019-01-10T10:21:18.180Z,0.60
2019-01-10T10:23:59.376Z,0.80
2019-01-10T10:26:40.323Z,0.70
2019-01-10T10:29:21.314Z,0.80
2019-01-10T10:32:02.194Z,0.70
2019-01-10T10:37:21.804Z,0.70
2019-01-10T10:40:03.182Z,0.90
2019-01-10T10:42:43.970Z,0.90
2019-01-10T10:45:24.850Z,0.80
2019-01-10T10:48:05.685Z,0.67
2019-01-10T10:50:46.715Z,0.80
2019-01-10T10:53:27.359Z,0.60
2019-01-10T10:56:08.268Z,0.50
2019-01-10T10:58:49.062Z,0.70
2019-01-10T11:01:29.936Z,1.00
2019-01-10T11:04:10.759Z,0.77
2019-01-10T11:06:51.446Z,0.70
2019-01-10T11:09:32.266Z,0.70
2019-01-10T11:12:13.363Z,1.00
2019-01-10T11:14:54.498Z,0.80
2019-01-10T11:20:13.953Z,0.80
2019-01-10T11:22:54.827Z,0.90
2019-01-10T11:25:35.298Z,0.77
2019-01-10T11:28:15.758Z,0.80
2019-01-10T11:30:56.447Z,0.90
2019-01-10T11:33:36.176Z,0.80
2019-01-10T11:36:16.947Z,1.10
2019-01-10T11:38:57.802Z,1.00
2019-01-10T11:41:38.860Z,0.80
2019-01-10T11:44:20.177Z,0.90
2019-01-10T11:46:49.343Z,0.80
2019-01-10T11:49:39.369Z,0.80
2019-01-10T11:52:27.406Z,0.97
2019-01-10T11:55:07.910Z,0.70
2019-01-10T11:57:47.406Z,0.90
2019-01-10T12:00:28.801Z,0.90
2019-01-10T12:05:52.802Z,1.27
2019-01-10T12:08:30.935Z,1.00
2019-01-10T12:11:11.924Z,1.10
2019-01-10T12:13:52.644Z,0.70
2019-01-10T12:16:33.656Z,0.90
2019-01-10T12:19:14.419Z,1.30
2019-01-10T12:24:34.022Z,1.20
2019-01-10T12:27:15.320Z,1.37
2019-01-10T12:29:56.028Z,1.00
2019-01-10T12:32:37.251Z,1.10
2019-01-10T12:35:18.088Z,0.80
2019-01-10T12:37:59.264Z,1.10
2019-01-10T12:40:40.374Z,0.97
2019-01-10T12:43:21.204Z,1.27
2019-01-10T12:46:01.917Z,0.80
2019-01-10T12:48:42.835Z,0.80
2019-01-10T12:51:23.392Z,1.10
2019-01-10T12:54:04.414Z,0.83
2019-01-10T12:56:45.396Z,0.80
2019-01-10T12:59:28.330Z,1.10
2019-01-10T13:02:08.881Z,1.20
2019-01-10T13:04:49.658Z,0.90
2019-01-10T13:07:30.547Z,1.10
2019-01-10T13:10:11.366Z,0.70
2019-01-10T13:12:52.410Z,1.20
2019-01-10T13:15:33.389Z,1.40
2019-01-10T13:20:52.956Z,0.90
2019-01-10T13:23:33.655Z,1.20
2019-01-10T13:26:14.294Z,0.90
2019-01-10T13:31:33.670Z,1.07
2019-01-10T13:36:53.199Z,0.97
2019-01-10T13:39:34.336Z,1.10
2019-01-10T13:42:15.302Z,0.90
2019-01-10T13:44:56.043Z,0.67
2019-01-10T13:47:36.589Z,0.90
2019-01-10T13:50:17.390Z,0.90
2019-01-10T13:52:57.814Z,1.00
2019-01-10T13:55:38.649Z,0.90
2019-01-10T13:58:19.862Z,0.90
2019-01-10T14:01:01.001Z,1.10
2019-01-10T14:03:30.130Z,0.90
2019-01-10T14:06:18.327Z,1.03
2019-01-10T14:08:59.309Z,1.20
2019-01-10T14:11:40.472Z,1.00
2019-01-10T14:14:21.827Z,1.10
2019-01-10T14:17:02.573Z,1.10
2019-01-10T14:22:22.284Z,1.20
2019-01-10T14:25:02.939Z,1.50
2019-01-10T14:27:42.666Z,1.00
2019-01-10T14:30:23.900Z,1.03
2019-01-10T14:33:03.504Z,0.90
2019-01-10T14:35:44.478Z,0.90
2019-01-10T14:38:25.099Z,1.00
2019-01-10T14:41:06.330Z,0.80
2019-01-10T14:43:47.051Z,0.90
2019-01-10T14:46:28.318Z,1.10
2019-01-10T14:49:09.419Z,0.90
2019-01-10T14:51:49.101Z,1.00
2019-01-10T14:54:18.267Z,1.13
2019-01-10T14:56:47.796Z,2.07
2019-01-10T14:59:18.437Z,2.27
2019-01-10T15:01:49.347Z,2.43
2019-01-10T15:04:18.526Z,1.80
2019-01-10T15:06:47.685Z,1.60
2019-01-10T15:09:16.855Z,1.20
2019-01-10T15:12:05.164Z,0.70
2019-01-10T15:14:46.553Z,1.00
2019-01-10T15:17:27.557Z,1.07
2019-01-10T15:19:57.443Z,0.90
2019-01-10T15:22:26.574Z,0.97
2019-01-10T15:24:58.861Z,1.10
2019-01-10T15:27:29.177Z,1.10
2019-01-10T15:30:18.408Z,0.83
2019-01-10T15:32:59.762Z,1.10
2019-01-10T15:38:28.662Z,1.20
2019-01-10T15:40:57.827Z,0.83
2019-01-10T15:43:38.244Z,0.83
2019-01-10T15:46:07.464Z,0.90
2019-01-10T15:48:36.647Z,1.07
2019-01-10T15:51:05.963Z,1.43
2019-01-10T15:53:50.188Z,0.87
2019-01-10T15:56:21.412Z,0.83
2019-01-10T15:58:50.692Z,0.90
2019-01-10T16:01:19.793Z,1.20
2019-01-10T16:03:54.764Z,1.30
2019-01-10T16:06:29.469Z,1.00
2019-01-10T16:08:58.737Z,1.50
2019-01-10T16:11:28.967Z,1.10
2019-01-10T16:14:00.529Z,1.20
2019-01-10T16:16:32.223Z,1.30
2019-01-10T16:19:07.544Z,0.93
2019-01-10T16:21:40.348Z,1.70
2019-01-10T16:24:22.613Z,1.40
2019-01-10T16:26:57.002Z,1.03
2019-01-10T16:29:36.798Z,1.57
2019-01-10T16:32:08.022Z,1.50
2019-01-10T16:34:37.151Z,1.10
2019-01-10T16:37:06.511Z,1.20
2019-01-10T16:39:45.671Z,0.90
2019-01-10T16:42:14.996Z,1.10
2019-01-10T16:44:45.296Z,0.90
2019-01-10T16:47:14.931Z,0.90
2019-01-10T16:49:44.399Z,0.97
2019-01-10T16:52:13.487Z,1.20
2019-01-10T16:54:55.068Z,0.80
2019-01-10T16:57:25.318Z,0.77
2019-01-10T16:59:54.579Z,1.00
2019-01-10T17:02:27.291Z,1.00
2019-01-10T17:04:56.775Z,1.00
2019-01-10T17:07:31.907Z,1.20
2019-01-10T17:10:01.075Z,1.17
2019-01-10T17:12:30.440Z,1.00
2019-01-10T17:14:59.763Z,1.00
2019-01-10T17:17:28.990Z,1.03
2019-01-10T17:20:36.256Z,1.20
2019-01-10T17:23:17.008Z,1.37
2019-01-10T17:25:57.505Z,1.47
2019-01-10T17:28:38.564Z,1.50
2019-01-10T17:31:19.553Z,1.33
2019-01-10T17:34:00.453Z,1.33
2019-01-10T17:36:41.804Z,1.40
2019-01-10T17:39:22.412Z,1.60
2019-01-10T17:42:03.066Z,2.13
2019-01-10T17:44:44.136Z,3.50
2019-01-10T17:50:03.761Z,2.17
2019-01-10T17:52:38.383Z,1.93
2019-01-10T17:55:19.276Z,1.77
2019-01-10T17:58:00.380Z,1.60
2019-01-10T18:00:41.286Z,1.90
2019-01-10T18:03:22.519Z,2.30
2019-01-10T18:06:03.371Z,1.80
2019-01-10T18:08:44.072Z,1.57
2019-01-10T18:14:04.011Z,1.30
2019-01-10T18:16:44.413Z,2.30
2019-01-10T18:19:25.323Z,2.60
2019-01-10T18:22:06.111Z,2.67
2019-01-10T18:24:46.928Z,2.30
2019-01-10T18:27:27.961Z,2.03
2019-01-10T18:30:08.974Z,3.10
2019-01-10T18:32:49.920Z,4.73
2019-01-10T18:35:30.747Z,3.40
2019-01-10T18:38:11.456Z,2.37
2019-01-10T18:40:52.640Z,2.10
2019-01-10T18:43:33.928Z,2.73
2019-01-10T18:46:14.705Z,2.30
2019-01-10T18:48:55.082Z,2.50
2019-01-10T18:51:35.876Z,2.50
2019-01-10T18:54:16.989Z,3.00
2019-01-10T18:56:57.673Z,2.83
2019-01-10T18:59:26.809Z,2.13
2019-01-10T19:02:15.018Z,1.70
2019-01-10T19:04:44.488Z,1.87
2019-01-10T19:07:33.049Z,1.70
2019-01-10T19:10:14.057Z,1.90
2019-01-10T19:12:54.746Z,1.87
2019-01-10T19:15:35.693Z,2.20
2019-01-10T19:18:16.749Z,1.90
2019-01-10T19:20:57.975Z,2.60
2019-01-10T19:23:38.795Z,2.70
2019-01-10T19:26:19.559Z,2.57
2019-01-10T19:29:00.522Z,3.10
2019-01-10T19:31:40.950Z,2.30
2019-01-10T19:34:22.102Z,2.37
2019-01-10T19:37:02.855Z,2.23
2019-01-10T19:39:44.169Z,2.10
2019-01-10T19:42:25.106Z,2.10
2019-01-10T19:45:06.451Z,1.87
2019-01-10T19:47:47.035Z,2.20
2019-01-10T19:50:28.044Z,2.00
2019-01-10T19:53:08.524Z,1.90
2019-01-10T19:55:48.921Z,2.00
2019-01-10T20:01:08.361Z,2.57
2019-01-10T20:03:49.645Z,2.00
2019-01-10T20:06:30.262Z,1.30
2019-01-10T20:09:11.223Z,1.50
2019-01-10T20:11:52.063Z,1.40
2019-01-10T20:14:33.026Z,1.27
2019-01-10T20:17:13.711Z,1.60
2019-01-10T20:19:55.028Z,1.60
2019-01-10T20:22:35.904Z,1.20
2019-01-10T20:25:16.729Z,1.33
2019-01-10T20:27:57.596Z,1.50
2019-01-10T20:30:38.392Z,1.40
2019-01-10T20:33:19.588Z,1.23
2019-01-10T20:36:00.121Z,1.30
2019-01-10T20:41:19.606Z,1.67
2019-01-10T20:46:39.550Z,2.70
2019-01-10T20:49:20.756Z,2.10
2019-01-10T20:52:01.664Z,1.53
2019-01-10T20:54:42.684Z,1.60
2019-01-10T20:57:23.660Z,1.60
2019-01-10T21:00:03.443Z,1.33
2019-01-10T21:02:44.459Z,1.50
2019-01-10T21:05:25.749Z,1.40
2019-01-10T21:08:06.941Z,2.00
2019-01-10T21:10:47.612Z,1.87
2019-01-10T21:13:28.415Z,1.77
2019-01-10T21:16:09.347Z,1.80
2019-01-10T21:18:49.888Z,1.57
2019-01-10T21:21:30.649Z,1.73
2019-01-10T21:24:11.658Z,2.07
2019-01-10T21:26:52.450Z,1.80
2019-01-10T21:29:33.193Z,1.80
2019-01-10T21:32:13.951Z,1.97
2019-01-10T21:34:54.891Z,1.70
2019-01-10T21:37:36.121Z,1.53
2019-01-10T21:40:16.752Z,1.37
2019-01-10T21:42:56.628Z,1.23
2019-01-10T21:45:37.907Z,1.23
2019-01-10T21:48:18.341Z,1.23
2019-01-10T21:50:58.730Z,1.00
2019-01-10T21:53:39.495Z,1.00
2019-01-10T21:56:20.636Z,1.20
2019-01-10T21:59:01.468Z,1.70
2019-01-10T22:01:42.217Z,1.97
2019-01-10T22:04:23.073Z,1.67
2019-01-10T22:07:03.662Z,1.60
2019-01-10T22:12:23.319Z,1.00
2019-01-10T22:15:03.934Z,1.20
2019-01-10T22:17:44.644Z,1.00
2019-01-10T22:20:26.638Z,0.83
2019-01-10T22:23:07.359Z,1.40
2019-01-10T22:25:47.997Z,0.90
2019-01-10T22:28:28.683Z,1.30
2019-01-10T22:31:09.602Z,0.90
2019-01-10T22:33:50.335Z,1.13
2019-01-10T22:36:31.144Z,0.90
2019-01-10T22:39:11.972Z,0.70
2019-01-10T22:41:52.949Z,1.03
2019-01-10T22:44:33.933Z,1.00
2019-01-10T22:47:14.752Z,0.83
2019-01-10T22:49:55.377Z,0.70
2019-01-10T22:52:36.346Z,1.00
2019-01-10T22:55:17.003Z,1.20
2019-01-10T22:57:57.450Z,1.37
2019-01-10T23:01:00.183Z,3.03
2019-01-10T23:06:19.650Z,2.20
2019-01-10T23:09:00.607Z,1.40
2019-01-10T23:11:41.681Z,1.30
2019-01-10T23:14:22.494Z,1.13
2019-01-10T23:19:42.511Z,1.20
2019-01-10T23:22:23.215Z,2.37
2019-01-10T23:25:04.044Z,1.83
2019-01-10T23:27:45.318Z,1.40
2019-01-10T23:30:26.053Z,1.40
2019-01-10T23:33:06.701Z,1.80
2019-01-10T23:35:51.299Z,1.70
2019-01-10T23:38:32.165Z,1.80
2019-01-10T23:41:11.970Z,1.70
2019-01-10T23:46:31.318Z,1.20
2019-01-10T23:49:12.054Z,1.50
2019-01-10T23:51:52.841Z,1.50
2019-01-10T23:54:33.612Z,1.53
2019-01-10T23:59:53.191Z,1.40
